Time;durP1;ratioP1;P1;durP2;ratioP2;P2;SDS_P1;SDS_P2;PMS_P1;PMS_P2;Temp;Humidity;BMP_temperature;BMP_pressure;BME280_temperature;BME280_humidity;BME280_pressure;Samples;Min_cycle;Max_cycle;Signal;HPM_P1;HPM_P2
2022/03/28 00:02:19;;;;;;;29.58;12.93;;;;;;;;;;5035250;28;20580;-92
2022/03/28 00:04:44;;;;;;;28.23;13.30;;;;;;;;;;5035106;28;20071;-85
2022/03/28 00:07:09;;;;;;;29.10;13.68;;;;;;;;;;5033996;28;20377;-92
2022/03/28 00:09:34;;;;;;;31.58;14.18;;;;;;;;;;5034705;28;20056;-93
2022/03/28 00:12:00;;;;;;;28.80;14.25;;;;;;;;;;5034761;28;20072;-83
2022/03/28 00:14:25;;;;;;;26.67;12.40;;;;;;;;;;5034997;28;20053;-94
2022/03/28 00:16:50;;;;;;;25.50;11.40;;;;;;;;;;5033731;28;20026;-94
2022/03/28 00:19:15;;;;;;;24.65;11.45;;;;;;;;;;5034787;28;20045;-92
2022/03/28 00:21:41;;;;;;;30.45;13.02;;;;;;;;;;5034510;28;20021;-93
2022/03/28 00:24:06;;;;;;;28.45;12.85;;;;;;;;;;5034358;28;20141;-93
2022/03/28 00:26:31;;;;;;;27.35;12.05;;;;;;;;;;5033356;28;20018;-93
2022/03/28 00:28:57;;;;;;;29.85;12.77;;;;;;;;;;5033596;28;20025;-94
2022/03/28 00:31:22;;;;;;;30.92;13.88;;;;;;;;;;5034467;28;20083;-86
2022/03/28 00:33:47;;;;;;;29.27;12.07;;;;;;;;;;5033436;28;20458;-94
2022/03/28 00:36:13;;;;;;;27.95;12.90;;;;;;;;;;5034387;28;20018;-89
2022/03/28 00:38:38;;;;;;;33.88;13.95;;;;;;;;;;5034076;28;20378;-94
2022/03/28 00:41:04;;;;;;;32.67;13.75;;;;;;;;;;5033193;28;20013;-87
2022/03/28 00:43:29;;;;;;;33.53;14.40;;;;;;;;;;5033234;28;20374;-84
2022/03/28 00:45:55;;;;;;;29.15;12.18;;;;;;;;;;5033391;28;20083;-93
2022/03/28 00:48:20;;;;;;;27.00;11.65;;;;;;;;;;5034436;28;20025;-86
2022/03/28 00:50:45;;;;;;;28.60;11.65;;;;;;;;;;5033163;28;20034;-87
2022/03/28 00:53:12;;;;;;;27.15;11.38;;;;;;;;;;5033100;28;20025;-92
2022/03/28 00:55:37;;;;;;;26.42;11.55;;;;;;;;;;5033002;28;20017;-93
2022/03/28 00:58:03;;;;;;;27.10;10.25;;;;;;;;;;5032838;28;20047;-93
2022/03/28 01:00:28;;;;;;;26.65;11.88;;;;;;;;;;5033188;28;20099;-85
2022/03/28 01:02:53;;;;;;;25.50;12.30;;;;;;;;;;5033508;28;20037;-93
2022/03/28 01:05:18;;;;;;;38.03;14.20;;;;;;;;;;5033958;28;20021;-93
2022/03/28 01:07:44;;;;;;;37.30;15.68;;;;;;;;;;5033028;28;20029;-90
2022/03/28 01:10:10;;;;;;;35.17;13.50;;;;;;;;;;5033954;28;20036;-85
2022/03/28 01:12:36;;;;;;;35.13;13.75;;;;;;;;;;5034028;28;20095;-93
2022/03/28 01:15:02;;;;;;;43.50;18.30;;;;;;;;;;5032762;28;20474;-93
2022/03/28 01:20:11;;;;;;;44.53;18.48;;;;;;;;;;5034216;28;20031;-93
2022/03/28 01:22:37;;;;;;;48.58;19.88;;;;;;;;;;5032570;28;20037;-93
2022/03/28 01:25:04;;;;;;;39.45;16.10;;;;;;;;;;5031936;28;20037;-93
2022/03/28 01:27:29;;;;;;;36.72;13.55;;;;;;;;;;5032223;28;20055;-93
2022/03/28 01:29:54;;;;;;;42.67;17.38;;;;;;;;;;5032468;28;20112;-86
2022/03/28 01:32:19;;;;;;;32.97;14.20;;;;;;;;;;5032441;28;20029;-85
2022/03/28 01:34:45;;;;;;;29.00;12.90;;;;;;;;;;5032420;28;20032;-87
2022/03/28 01:37:10;;;;;;;27.98;11.30;;;;;;;;;;5032377;28;20051;-87
2022/03/28 01:39:35;;;;;;;27.00;11.52;;;;;;;;;;5032383;28;20076;-84
2022/03/28 01:42:00;;;;;;;29.92;12.27;;;;;;;;;;5032278;28;20025;-88
2022/03/28 01:44:26;;;;;;;31.80;13.43;;;;;;;;;;5033245;28;20076;-92
2022/03/28 01:46:51;;;;;;;30.98;11.57;;;;;;;;;;5033238;28;20454;-93
2022/03/28 01:49:18;;;;;;;33.05;12.93;;;;;;;;;;5031943;28;20078;-93
2022/03/28 01:51:43;;;;;;;35.92;13.93;;;;;;;;;;5032236;28;20477;-84
2022/03/28 01:54:09;;;;;;;30.65;12.32;;;;;;;;;;5032013;28;20024;-94
2022/03/28 01:56:35;;;;;;;40.80;16.40;;;;;;;;;;5033198;28;20064;-84
2022/03/28 01:59:03;;;;;;;35.75;12.93;;;;;;;;;;5031874;28;20021;-90
2022/03/28 02:01:29;;;;;;;45.05;15.30;;;;;;;;;;5032884;28;20548;-92
2022/03/28 02:03:54;;;;;;;50.92;17.25;;;;;;;;;;5032240;28;20120;-92
2022/03/28 02:06:19;;;;;;;60.03;21.00;;;;;;;;;;5031813;28;20474;-89
2022/03/28 02:08:44;;;;;;;52.65;17.55;;;;;;;;;;5032017;28;20044;-93
2022/03/28 02:11:10;;;;;;;59.33;20.58;;;;;;;;;;5033161;28;20036;-93
2022/03/28 02:13:35;;;;;;;54.80;18.98;;;;;;;;;;5032019;28;20026;-93
2022/03/28 02:16:00;;;;;;;35.63;13.43;;;;;;;;;;5033453;28;20454;-91
2022/03/28 02:18:26;;;;;;;37.70;15.38;;;;;;;;;;5032051;28;20033;-91
2022/03/28 02:20:51;;;;;;;30.15;13.75;;;;;;;;;;5031736;28;20462;-93
2022/03/28 02:23:16;;;;;;;33.65;13.70;;;;;;;;;;5031526;28;20473;-85
2022/03/28 02:25:42;;;;;;;29.60;11.68;;;;;;;;;;5032766;28;20028;-93
2022/03/28 02:28:07;;;;;;;31.17;11.73;;;;;;;;;;5032749;28;20064;-94
2022/03/28 02:30:33;;;;;;;68.05;15.55;;;;;;;;;;5031554;28;20071;-92
2022/03/28 02:32:58;;;;;;;59.67;14.40;;;;;;;;;;5031695;28;20029;-84
2022/03/28 02:35:24;;;;;;;57.30;15.68;;;;;;;;;;5031959;28;20485;-86
2022/03/28 02:37:49;;;;;;;42.63;15.60;;;;;;;;;;5032889;28;20359;-85
2022/03/28 02:40:15;;;;;;;39.78;14.40;;;;;;;;;;5036726;28;20477;-92
2022/03/28 02:42:40;;;;;;;48.35;14.43;;;;;;;;;;5035576;28;20040;-93
2022/03/28 02:45:05;;;;;;;73.82;14.95;;;;;;;;;;5035140;28;20080;-86
2022/03/28 02:47:31;;;;;;;67.45;15.52;;;;;;;;;;5036511;28;20425;-93
2022/03/28 02:49:56;;;;;;;52.28;14.32;;;;;;;;;;5035540;28;21047;-94
2022/03/28 02:52:22;;;;;;;47.28;15.43;;;;;;;;;;5036446;28;20014;-87
2022/03/28 02:54:47;;;;;;;60.47;17.50;;;;;;;;;;5034273;28;20017;-87
2022/03/28 02:57:12;;;;;;;57.63;15.75;;;;;;;;;;5030771;28;20048;-84
2022/03/28 02:59:38;;;;;;;56.90;14.30;;;;;;;;;;5041188;28;20368;-93
2022/03/28 03:02:03;;;;;;;51.53;14.77;;;;;;;;;;5029518;28;20025;-88
2022/03/28 03:04:29;;;;;;;78.85;15.82;;;;;;;;;;5020564;28;20026;-93
2022/03/28 03:06:55;;;;;;;62.28;16.55;;;;;;;;;;5031749;28;20025;-93
2022/03/28 03:09:20;;;;;;;68.60;19.13;;;;;;;;;;5016678;28;20386;-92
2022/03/28 03:11:45;;;;;;;63.25;16.05;;;;;;;;;;5031101;28;20026;-92
2022/03/28 03:14:10;;;;;;;64.55;17.30;;;;;;;;;;5034747;28;20025;-93
2022/03/28 03:16:36;;;;;;;64.63;14.23;;;;;;;;;;5035025;28;20032;-89
2022/03/28 03:19:01;;;;;;;54.35;13.48;;;;;;;;;;5034602;28;20492;-94
2022/03/28 03:21:26;;;;;;;52.15;15.48;;;;;;;;;;5034928;28;20030;-94
2022/03/28 03:23:51;;;;;;;83.95;16.08;;;;;;;;;;5034789;28;20026;-91
2022/03/28 03:26:17;;;;;;;55.58;15.35;;;;;;;;;;5034836;28;20029;-93
2022/03/28 03:28:42;;;;;;;59.05;15.15;;;;;;;;;;5034883;28;20390;-93
2022/03/28 03:31:07;;;;;;;51.42;15.50;;;;;;;;;;5035807;28;20025;-92
2022/03/28 03:33:33;;;;;;;64.93;15.77;;;;;;;;;;5035808;28;20432;-84
2022/03/28 03:36:00;;;;;;;59.03;15.25;;;;;;;;;;5034769;28;20021;-93
2022/03/28 03:38:25;;;;;;;63.53;13.70;;;;;;;;;;5035664;28;20022;-92
2022/03/28 03:40:50;;;;;;;63.17;14.48;;;;;;;;;;5035734;28;20013;-93
2022/03/28 03:43:16;;;;;;;56.22;13.85;;;;;;;;;;5035338;28;20075;-93
2022/03/28 03:45:41;;;;;;;55.78;14.02;;;;;;;;;;5034488;28;20018;-85
2022/03/28 03:48:06;;;;;;;63.88;14.50;;;;;;;;;;5033801;28;20502;-88
2022/03/28 03:50:31;;;;;;;67.47;15.57;;;;;;;;;;5035358;28;20386;-92
2022/03/28 03:52:57;;;;;;;83.30;15.10;;;;;;;;;;5035586;28;20075;-91
2022/03/28 03:55:22;;;;;;;52.05;14.73;;;;;;;;;;5035315;28;20025;-92
2022/03/28 03:57:47;;;;;;;47.78;12.55;;;;;;;;;;5034594;28;20029;-87
2022/03/28 04:00:13;;;;;;;42.85;12.82;;;;;;;;;;5034093;28;20022;-93
2022/03/28 04:02:38;;;;;;;48.00;13.57;;;;;;;;;;5033664;28;20022;-92
2022/03/28 04:05:04;;;;;;;50.35;15.15;;;;;;;;;;5035067;28;20057;-86
2022/03/28 04:07:29;;;;;;;42.80;13.00;;;;;;;;;;5033953;28;20014;-93
2022/03/28 04:09:54;;;;;;;46.03;13.68;;;;;;;;;;5034850;28;20025;-90
2022/03/28 04:12:19;;;;;;;46.78;13.45;;;;;;;;;;5034263;28;20017;-92
2022/03/28 04:14:45;;;;;;;55.88;16.92;;;;;;;;;;5035134;28;20056;-92
2022/03/28 04:17:10;;;;;;;39.97;15.40;;;;;;;;;;5033430;28;20112;-93
2022/03/28 04:19:35;;;;;;;36.70;13.65;;;;;;;;;;5034471;28;20089;-92
2022/03/28 04:22:00;;;;;;;58.03;15.05;;;;;;;;;;5034498;28;20099;-85
2022/03/28 04:24:26;;;;;;;39.78;15.05;;;;;;;;;;5034056;28;20077;-93
2022/03/28 04:26:51;;;;;;;37.47;13.30;;;;;;;;;;5034282;28;20017;-93
2022/03/28 04:29:16;;;;;;;36.00;12.77;;;;;;;;;;5030829;28;20126;-92
2022/03/28 04:31:42;;;;;;;43.00;14.25;;;;;;;;;;5030686;28;20025;-94
2022/03/28 04:34:09;;;;;;;35.70;14.45;;;;;;;;;;5031722;28;20060;-88
2022/03/28 04:36:34;;;;;;;39.35;14.75;;;;;;;;;;5032716;28;20083;-90
2022/03/28 04:38:59;;;;;;;34.67;14.38;;;;;;;;;;5031178;28;20021;-94
2022/03/28 04:41:24;;;;;;;41.70;14.27;;;;;;;;;;5032594;28;20313;-85
2022/03/28 04:43:50;;;;;;;50.92;16.17;;;;;;;;;;5029125;28;20026;-93
2022/03/28 04:46:15;;;;;;;52.13;18.05;;;;;;;;;;5032447;28;20021;-85
2022/03/28 04:48:40;;;;;;;47.00;16.85;;;;;;;;;;5032386;28;20112;-85
2022/03/28 04:51:06;;;;;;;58.92;21.25;;;;;;;;;;5032950;28;20167;-84
2022/03/28 04:53:32;;;;;;;38.30;15.60;;;;;;;;;;5034016;28;20029;-85
2022/03/28 04:55:57;;;;;;;32.75;13.82;;;;;;;;;;5032048;28;20018;-93
2022/03/28 04:58:22;;;;;;;29.83;12.13;;;;;;;;;;5031625;28;20025;-93
2022/03/28 05:00:47;;;;;;;27.23;11.93;;;;;;;;;;5031191;28;20128;-92
2022/03/28 05:03:12;;;;;;;32.22;12.20;;;;;;;;;;5034217;28;20033;-93
2022/03/28 05:05:38;;;;;;;35.92;16.50;;;;;;;;;;5034096;28;20018;-93
2022/03/28 05:08:03;;;;;;;26.30;11.50;;;;;;;;;;5034021;28;20018;-92
2022/03/28 05:10:28;;;;;;;28.45;12.00;;;;;;;;;;5033626;28;20060;-94
2022/03/28 05:12:54;;;;;;;30.65;12.38;;;;;;;;;;5033187;28;20548;-93
2022/03/28 05:15:19;;;;;;;43.97;17.65;;;;;;;;;;5032466;28;20104;-93
2022/03/28 05:17:44;;;;;;;38.97;14.30;;;;;;;;;;5032082;28;20025;-88
2022/03/28 05:20:10;;;;;;;34.42;13.45;;;;;;;;;;5031726;28;20532;-84
2022/03/28 05:22:35;;;;;;;42.97;23.30;;;;;;;;;;5031917;28;20033;-93
2022/03/28 05:25:02;;;;;;;41.47;15.52;;;;;;;;;;5033453;28;20355;-85
2022/03/28 05:27:28;;;;;;;34.40;12.15;;;;;;;;;;5032593;28;20045;-92
2022/03/28 05:29:53;;;;;;;38.20;16.05;;;;;;;;;;5032380;28;20056;-94
2022/03/28 05:32:18;;;;;;;99.83;46.07;;;;;;;;;;5032237;28;20028;-84
2022/03/28 05:34:43;;;;;;;85.85;42.17;;;;;;;;;;5033293;28;20021;-88
2022/03/28 05:37:10;;;;;;;59.77;13.90;;;;;;;;;;5033007;28;20028;-93
2022/03/28 05:39:36;;;;;;;53.72;15.77;;;;;;;;;;5032105;28;20029;-92
2022/03/28 05:42:01;;;;;;;56.05;14.48;;;;;;;;;;5032096;28;20018;-93
2022/03/28 05:44:27;;;;;;;55.20;16.10;;;;;;;;;;5033052;28;20029;-94
2022/03/28 05:46:52;;;;;;;46.78;13.93;;;;;;;;;;5031886;28;20021;-87
2022/03/28 05:49:22;;;;;;;48.10;14.98;;;;;;;;;;5031724;28;20116;-92
2022/03/28 05:51:48;;;;;;;44.65;15.95;;;;;;;;;;5031757;28;20041;-84
2022/03/28 05:54:13;;;;;;;42.92;13.10;;;;;;;;;;5032929;28;20064;-93
2022/03/28 05:56:38;;;;;;;32.92;11.90;;;;;;;;;;5031773;28;20430;-93
2022/03/28 05:59:04;;;;;;;46.63;16.35;;;;;;;;;;5032827;28;20401;-89
2022/03/28 06:01:29;;;;;;;40.00;12.98;;;;;;;;;;5031747;28;20109;-93
2022/03/28 06:03:55;;;;;;;38.95;14.95;;;;;;;;;;5031723;28;20056;-92
2022/03/28 06:06:20;;;;;;;45.55;15.77;;;;;;;;;;5031389;28;20421;-84
2022/03/28 06:08:45;;;;;;;40.75;15.70;;;;;;;;;;5031971;28;20022;-93
2022/03/28 06:11:10;;;;;;;31.92;14.15;;;;;;;;;;5031974;28;20462;-91
2022/03/28 06:13:36;;;;;;;39.85;16.40;;;;;;;;;;5035890;28;20026;-93
2022/03/28 06:16:02;;;;;;;35.65;13.43;;;;;;;;;;5035909;28;20033;-87
2022/03/28 06:18:28;;;;;;;34.75;14.23;;;;;;;;;;5035739;28;20073;-93
2022/03/28 06:20:53;;;;;;;33.85;14.55;;;;;;;;;;5035472;28;20474;-84
2022/03/28 06:23:18;;;;;;;29.35;11.63;;;;;;;;;;5036942;28;20079;-84
2022/03/28 06:25:43;;;;;;;32.30;12.80;;;;;;;;;;5035678;28;20459;-85
2022/03/28 06:28:10;;;;;;;33.88;13.32;;;;;;;;;;5035822;28;20032;-86
2022/03/28 06:30:35;;;;;;;28.80;13.32;;;;;;;;;;5035486;28;20049;-84
2022/03/28 06:33:01;;;;;;;36.25;16.45;;;;;;;;;;5035648;28;20037;-93
2022/03/28 06:35:26;;;;;;;33.75;15.70;;;;;;;;;;5035315;28;20466;-93
2022/03/28 06:37:52;;;;;;;33.58;17.08;;;;;;;;;;5036741;28;20032;-89
2022/03/28 06:40:18;;;;;;;30.77;15.25;;;;;;;;;;5034871;28;20025;-91
2022/03/28 06:42:43;;;;;;;39.42;17.50;;;;;;;;;;5036389;28;20044;-84
2022/03/28 06:45:10;;;;;;;27.30;12.73;;;;;;;;;;5035275;28;20541;-93
2022/03/28 06:47:35;;;;;;;28.30;12.32;;;;;;;;;;5035097;28;20067;-93
2022/03/28 06:50:00;;;;;;;30.67;12.93;;;;;;;;;;5034854;28;20025;-90
2022/03/28 06:52:26;;;;;;;37.45;15.23;;;;;;;;;;5035488;28;20082;-91
2022/03/28 06:54:51;;;;;;;31.98;15.15;;;;;;;;;;5035119;28;20021;-90
2022/03/28 06:57:16;;;;;;;29.63;12.60;;;;;;;;;;5035046;28;20021;-85
2022/03/28 06:59:42;;;;;;;31.95;11.77;;;;;;;;;;5034944;28;20466;-90
2022/03/28 07:02:07;;;;;;;25.42;10.57;;;;;;;;;;5034940;28;20541;-90
2022/03/28 07:04:32;;;;;;;26.08;12.52;;;;;;;;;;5035006;28;20108;-91
2022/03/28 07:06:58;;;;;;;30.50;13.35;;;;;;;;;;5034107;28;20860;-87
2022/03/28 07:09:23;;;;;;;29.55;13.57;;;;;;;;;;5034427;28;20425;-85
2022/03/28 07:11:48;;;;;;;33.45;14.93;;;;;;;;;;5034481;28;20047;-85
2022/03/28 07:14:16;;;;;;;31.90;16.83;;;;;;;;;;5034458;28;20028;-90
2022/03/28 07:16:41;;;;;;;30.58;17.92;;;;;;;;;;5034695;28;20024;-90
2022/03/28 07:19:06;;;;;;;50.22;25.60;;;;;;;;;;5034535;28;20108;-90
2022/03/28 07:21:31;;;;;;;47.25;35.13;;;;;;;;;;5034694;28;20493;-89
2022/03/28 07:23:57;;;;;;;48.83;33.00;;;;;;;;;;5034536;28;20025;-89
2022/03/28 07:26:22;;;;;;;37.10;18.30;;;;;;;;;;5034644;28;20022;-90
2022/03/28 07:28:47;;;;;;;41.47;18.05;;;;;;;;;;5034287;28;20482;-90
2022/03/28 07:31:13;;;;;;;29.25;16.60;;;;;;;;;;5034574;28;20029;-90
2022/03/28 07:33:38;;;;;;;33.92;19.58;;;;;;;;;;5034819;28;20044;-90
2022/03/28 07:36:04;;;;;;;29.25;14.15;;;;;;;;;;5050827;28;20022;-86
2022/03/28 07:38:29;;;;;;;29.30;12.77;;;;;;;;;;5033829;28;20025;-90
2022/03/28 07:40:54;;;;;;;24.08;12.27;;;;;;;;;;5035545;28;20087;-90
2022/03/28 07:43:19;;;;;;;23.60;11.27;;;;;;;;;;5033961;28;20076;-86
2022/03/28 07:45:45;;;;;;;27.40;12.05;;;;;;;;;;5050650;28;20100;-90
2022/03/28 07:48:10;;;;;;;22.20;10.98;;;;;;;;;;5034351;28;20025;-89
2022/03/28 07:50:35;;;;;;;26.33;12.60;;;;;;;;;;5033808;28;20036;-90
2022/03/28 07:53:00;;;;;;;27.00;11.13;;;;;;;;;;5033868;28;20116;-87
2022/03/28 07:55:27;;;;;;;31.77;15.13;;;;;;;;;;5034819;28;20021;-89
2022/03/28 07:57:53;;;;;;;34.03;15.43;;;;;;;;;;5033875;28;20025;-85
2022/03/28 08:00:19;;;;;;;35.80;17.90;;;;;;;;;;5033812;28;20025;-90
2022/03/28 08:02:44;;;;;;;41.53;20.60;;;;;;;;;;5034882;28;20032;-88
2022/03/28 08:05:09;;;;;;;43.28;20.50;;;;;;;;;;5050394;28;20390;-88
2022/03/28 08:07:35;;;;;;;36.47;17.58;;;;;;;;;;5033512;28;20048;-85
2022/03/28 08:10:00;;;;;;;45.08;21.40;;;;;;;;;;5032553;28;20022;-89
2022/03/28 08:12:26;;;;;;;38.03;17.83;;;;;;;;;;5015079;28;20434;-91
2022/03/28 08:14:51;;;;;;;39.85;19.35;;;;;;;;;;5014871;28;20018;-85
2022/03/28 08:17:18;;;;;;;39.20;18.77;;;;;;;;;;5015182;28;20411;-90
2022/03/28 08:19:43;;;;;;;41.70;20.08;;;;;;;;;;5013343;28;20022;-88
2022/03/28 08:22:08;;;;;;;40.28;20.70;;;;;;;;;;5013126;28;20076;-91
2022/03/28 08:24:34;;;;;;;42.10;20.35;;;;;;;;;;5013331;28;20018;-85
2022/03/28 08:26:59;;;;;;;40.83;19.73;;;;;;;;;;5014751;28;20014;-91
2022/03/28 08:29:24;;;;;;;35.67;18.20;;;;;;;;;;5015040;28;20029;-91
2022/03/28 08:31:49;;;;;;;35.90;18.17;;;;;;;;;;5015583;28;20014;-91
2022/03/28 08:34:15;;;;;;;32.20;16.67;;;;;;;;;;5014213;28;20055;-89
2022/03/28 08:36:40;;;;;;;38.78;18.23;;;;;;;;;;5013302;28;20064;-91
2022/03/28 08:39:06;;;;;;;36.65;17.95;;;;;;;;;;5014181;28;20057;-84
2022/03/28 08:41:32;;;;;;;37.38;17.48;;;;;;;;;;5013145;28;20022;-91
2022/03/28 08:43:57;;;;;;;37.55;18.20;;;;;;;;;;5014441;28;20041;-86
2022/03/28 08:46:23;;;;;;;39.45;18.38;;;;;;;;;;5013316;28;20022;-84
2022/03/28 08:48:49;;;;;;;39.60;20.27;;;;;;;;;;5029165;28;20515;-91
2022/03/28 08:51:17;;;;;;;36.58;17.98;;;;;;;;;;5013169;28;20065;-90
2022/03/28 08:53:43;;;;;;;39.03;17.00;;;;;;;;;;5016798;28;20112;-85
2022/03/28 08:56:08;;;;;;;40.22;18.10;;;;;;;;;;5033578;28;20025;-90
2022/03/28 08:58:34;;;;;;;36.42;18.23;;;;;;;;;;5023980;28;20026;-91
2022/03/28 09:00:59;;;;;;;38.90;18.23;;;;;;;;;;5013801;28;20089;-90
2022/03/28 09:03:34;;;;;;;38.95;18.45;;;;;;;;;;5027536;28;20061;-86
2022/03/28 09:05:59;;;;;;;59.95;25.15;;;;;;;;;;5033569;28;20024;-85
2022/03/28 09:08:25;;;;;;;56.53;25.33;;;;;;;;;;5033939;28;20481;-90
2022/03/28 09:10:50;;;;;;;61.03;25.48;;;;;;;;;;5029579;28;20080;-85
2022/03/28 09:13:19;;;;;;;57.50;22.42;;;;;;;;;;5012915;28;20025;-84
2022/03/28 09:15:46;;;;;;;57.00;25.13;;;;;;;;;;5013705;28;20025;-92
2022/03/28 09:18:20;;;;;;;69.88;26.88;;;;;;;;;;5016477;28;20497;-91
2022/03/28 09:20:49;;;;;;;62.70;27.42;;;;;;;;;;5034235;28;20029;-90
2022/03/28 09:23:49;;;;;;;70.40;30.52;;;;;;;;;;5033283;28;20029;-85
2022/03/28 09:26:21;;;;;;;54.90;25.02;;;;;;;;;;5029883;28;20033;-91
2022/03/28 09:28:53;;;;;;;51.00;23.08;;;;;;;;;;5033815;28;20017;-91
2022/03/28 09:31:21;;;;;;;43.67;20.80;;;;;;;;;;5033221;28;20040;-91
2022/03/28 09:33:50;;;;;;;46.63;22.67;;;;;;;;;;5032342;28;20033;-85
2022/03/28 09:36:15;;;;;;;48.17;22.30;;;;;;;;;;5033396;28;20018;-91
2022/03/28 09:38:54;;;;;;;40.13;17.58;;;;;;;;;;5033191;28;20017;-91
2022/03/28 09:41:22;;;;;;;40.10;18.50;;;;;;;;;;5033183;28;20014;-91
2022/03/28 09:43:52;;;;;;;41.40;18.15;;;;;;;;;;5032609;28;20061;-91
2022/03/28 09:46:24;;;;;;;38.40;17.77;;;;;;;;;;5032589;28;20088;-92
2022/03/28 09:48:49;;;;;;;40.35;16.70;;;;;;;;;;5031704;28;20120;-92
2022/03/28 09:51:16;;;;;;;34.60;16.92;;;;;;;;;;5032139;28;20118;-85
2022/03/28 09:53:41;;;;;;;43.97;18.67;;;;;;;;;;5031977;28;20096;-91
2022/03/28 09:56:08;;;;;;;41.88;18.58;;;;;;;;;;5031838;28;20530;-90
2022/03/28 09:58:38;;;;;;;42.75;19.67;;;;;;;;;;5031698;28;20057;-91
2022/03/28 10:01:12;;;;;;;41.38;18.75;;;;;;;;;;5032271;28;20037;-90
2022/03/28 10:03:38;;;;;;;41.60;18.75;;;;;;;;;;5032677;28;20497;-91
2022/03/28 10:06:04;;;;;;;43.13;19.33;;;;;;;;;;5031572;28;20025;-85
2022/03/28 10:08:30;;;;;;;51.60;20.90;;;;;;;;;;5032176;28;20474;-85
2022/03/28 10:10:59;;;;;;;43.65;20.23;;;;;;;;;;5033498;28;20029;-91
2022/03/28 10:13:24;;;;;;;46.13;20.67;;;;;;;;;;5032723;28;20108;-87
2022/03/28 10:15:50;;;;;;;45.60;20.45;;;;;;;;;;5033288;28;20057;-87
2022/03/28 10:18:15;;;;;;;48.90;22.52;;;;;;;;;;5031548;28;20116;-88
2022/03/28 10:20:42;;;;;;;49.65;21.02;;;;;;;;;;5031179;28;20124;-87
2022/03/28 10:23:08;;;;;;;45.55;22.33;;;;;;;;;;5031844;28;20038;-87
2022/03/28 10:25:34;;;;;;;42.95;20.65;;;;;;;;;;5031520;28;20159;-87
2022/03/28 10:27:59;;;;;;;46.85;21.08;;;;;;;;;;5031087;28;20112;-87
2022/03/28 10:30:27;;;;;;;49.08;19.70;;;;;;;;;;5031045;28;20036;-86
2022/03/28 10:33:16;;;;;;;47.15;22.17;;;;;;;;;;5031699;28;20106;-86
2022/03/28 10:35:55;;;;;;;47.15;21.65;;;;;;;;;;5032430;28;20021;-85
2022/03/28 10:38:21;;;;;;;49.95;23.67;;;;;;;;;;5030909;28;20025;-87
2022/03/28 10:41:00;;;;;;;51.03;22.40;;;;;;;;;;5030239;28;20112;-88
2022/03/28 10:43:26;;;;;;;52.40;23.13;;;;;;;;;;5032339;28;20050;-87
2022/03/28 10:45:56;;;;;;;49.83;22.33;;;;;;;;;;5031160;28;20029;-88
2022/03/28 10:48:36;;;;;;;46.58;20.83;;;;;;;;;;5031096;28;20021;-87
2022/03/28 10:51:05;;;;;;;51.92;22.38;;;;;;;;;;5031035;28;20053;-88
2022/03/28 10:53:33;;;;;;;45.88;21.27;;;;;;;;;;5031973;28;20057;-87
2022/03/28 10:56:03;;;;;;;46.45;20.08;;;;;;;;;;5031984;28;20020;-87
2022/03/28 10:58:28;;;;;;;41.20;20.48;;;;;;;;;;5031703;28;20022;-84
2022/03/28 11:01:05;;;;;;;43.53;20.50;;;;;;;;;;5035414;28;20021;-90
2022/03/28 11:03:35;;;;;;;39.88;19.05;;;;;;;;;;5035692;28;20025;-87
2022/03/28 11:06:01;;;;;;;43.25;19.42;;;;;;;;;;5034714;28;20017;-91
2022/03/28 11:08:33;;;;;;;39.45;20.10;;;;;;;;;;5035925;28;20488;-83
2022/03/28 11:11:17;;;;;;;41.38;19.50;;;;;;;;;;5036214;28;20018;-90
2022/03/28 11:13:42;;;;;;;41.95;19.25;;;;;;;;;;5035839;28;20458;-90
2022/03/28 11:16:37;;;;;;;38.70;17.83;;;;;;;;;;5034824;28;20031;-91
2022/03/28 11:19:18;;;;;;;42.80;18.77;;;;;;;;;;5035060;28;20033;-89
2022/03/28 11:22:00;;;;;;;36.95;17.73;;;;;;;;;;5034193;28;20018;-83
2022/03/28 11:24:40;;;;;;;41.75;18.30;;;;;;;;;;5034613;28;20030;-89
2022/03/28 11:27:06;;;;;;;44.10;19.60;;;;;;;;;;5034231;28;20490;-89
2022/03/28 11:29:31;;;;;;;34.67;17.27;;;;;;;;;;5035240;28;20029;-89
2022/03/28 11:31:56;;;;;;;39.42;18.15;;;;;;;;;;5033913;28;20504;-90
2022/03/28 11:34:21;;;;;;;40.95;18.75;;;;;;;;;;5035108;28;20014;-83
2022/03/28 11:36:47;;;;;;;42.00;20.05;;;;;;;;;;5035278;28;20025;-90
2022/03/28 11:39:14;;;;;;;44.70;18.83;;;;;;;;;;5035040;28;20026;-89
2022/03/28 11:41:40;;;;;;;37.42;18.35;;;;;;;;;;5035203;28;20022;-90
2022/03/28 11:44:05;;;;;;;38.58;17.85;;;;;;;;;;5035436;28;20033;-84
2022/03/28 11:46:32;;;;;;;39.60;18.42;;;;;;;;;;5035459;28;20109;-90
2022/03/28 11:49:05;;;;;;;45.97;20.05;;;;;;;;;;5033833;28;20125;-89
2022/03/28 11:51:32;;;;;;;40.03;19.52;;;;;;;;;;5035545;28;20033;-89
2022/03/28 11:53:58;;;;;;;43.38;19.67;;;;;;;;;;5034136;28;20025;-89
2022/03/28 11:56:25;;;;;;;41.97;18.92;;;;;;;;;;5034230;28;20475;-88
2022/03/28 11:58:50;;;;;;;41.72;19.45;;;;;;;;;;5033561;28;20026;-83
2022/03/28 12:01:16;;;;;;;37.70;18.17;;;;;;;;;;5033532;28;20049;-87
2022/03/28 12:03:50;;;;;;;44.45;19.55;;;;;;;;;;5034859;28;20049;-89
2022/03/28 12:06:26;;;;;;;46.50;19.30;;;;;;;;;;5034309;28;20017;-89
2022/03/28 12:08:51;;;;;;;44.50;19.98;;;;;;;;;;5033554;28;20323;-83
2022/03/28 12:11:17;;;;;;;43.72;19.45;;;;;;;;;;5033352;28;20013;-90
2022/03/28 12:13:42;;;;;;;43.72;19.92;;;;;;;;;;5033649;28;20029;-84
2022/03/28 12:16:07;;;;;;;46.80;21.02;;;;;;;;;;5035103;28;20024;-90
2022/03/28 12:18:32;;;;;;;41.92;20.10;;;;;;;;;;5033617;28;20112;-93
2022/03/28 12:20:58;;;;;;;46.25;20.52;;;;;;;;;;5033416;28;20021;-89
2022/03/28 12:23:28;;;;;;;45.60;20.85;;;;;;;;;;5033399;28;20061;-90
2022/03/28 12:25:53;;;;;;;42.30;19.77;;;;;;;;;;5034776;28;20466;-83
2022/03/28 12:28:29;;;;;;;43.28;19.30;;;;;;;;;;5034308;28;20030;-89
2022/03/28 12:30:58;;;;;;;39.05;18.60;;;;;;;;;;5034939;28;20029;-84
2022/03/28 12:33:26;;;;;;;39.67;17.92;;;;;;;;;;5034512;28;20045;-84
2022/03/28 12:35:53;;;;;;;32.80;16.35;;;;;;;;;;5033419;28;20068;-91
2022/03/28 12:38:23;;;;;;;39.30;19.17;;;;;;;;;;5032873;28;20025;-91
2022/03/28 12:40:52;;;;;;;38.45;19.52;;;;;;;;;;5033051;28;20014;-90
2022/03/28 12:43:19;;;;;;;38.42;19.75;;;;;;;;;;5032989;28;20493;-86
2022/03/28 12:45:44;;;;;;;40.42;18.70;;;;;;;;;;5032880;28;20583;-92
2022/03/28 12:48:11;;;;;;;33.33;15.50;;;;;;;;;;5033850;28;20022;-90
2022/03/28 12:50:49;;;;;;;41.80;19.15;;;;;;;;;;5032460;28;20486;-91
2022/03/28 12:53:15;;;;;;;38.15;17.60;;;;;;;;;;5034103;28;20017;-88
2022/03/28 12:55:43;;;;;;;32.25;15.30;;;;;;;;;;5033753;28;20040;-92
2022/03/28 12:58:08;;;;;;;31.70;13.75;;;;;;;;;;5034106;28;20059;-92
2022/03/28 13:00:34;;;;;;;33.28;15.60;;;;;;;;;;5032189;28;20469;-84
2022/03/28 13:03:01;;;;;;;25.63;11.02;;;;;;;;;;5033792;28;20525;-91
2022/03/28 13:05:28;;;;;;;27.33;12.88;;;;;;;;;;5033713;28;20045;-92
2022/03/28 13:07:53;;;;;;;31.25;14.93;;;;;;;;;;5033345;28;20047;-92
2022/03/28 13:10:22;;;;;;;28.75;14.55;;;;;;;;;;5032463;28;20017;-93
2022/03/28 13:12:54;;;;;;;29.48;13.70;;;;;;;;;;5032727;28;20018;-87
2022/03/28 13:15:21;;;;;;;31.75;13.70;;;;;;;;;;5033585;28;20066;-90
2022/03/28 13:17:48;;;;;;;31.20;15.27;;;;;;;;;;5033602;28;20013;-93
2022/03/28 13:20:23;;;;;;;26.33;11.88;;;;;;;;;;5032120;28;20032;-92
2022/03/28 13:22:51;;;;;;;32.55;14.52;;;;;;;;;;5031984;28;20041;-84
2022/03/28 13:25:18;;;;;;;33.00;14.15;;;;;;;;;;5033747;28;20017;-86
2022/03/28 13:28:04;;;;;;;33.33;14.55;;;;;;;;;;5032537;28;20025;-91
2022/03/28 13:30:31;;;;;;;32.95;15.85;;;;;;;;;;5032193;28;20022;-93
2022/03/28 13:32:57;;;;;;;35.55;15.98;;;;;;;;;;5032170;28;20100;-89
2022/03/28 13:35:25;;;;;;;34.13;14.82;;;;;;;;;;5032870;28;20096;-84
2022/03/28 13:37:58;;;;;;;32.05;13.40;;;;;;;;;;5030771;28;20112;-90
2022/03/28 13:40:24;;;;;;;31.75;13.07;;;;;;;;;;5013820;28;20022;-85
2022/03/28 13:42:50;;;;;;;30.55;12.70;;;;;;;;;;5013526;28;20034;-88
2022/03/28 13:45:15;;;;;;;31.02;13.10;;;;;;;;;;5021075;28;20470;-87
2022/03/28 13:47:40;;;;;;;31.27;15.13;;;;;;;;;;5032723;28;20458;-88
2022/03/28 13:50:06;;;;;;;34.33;15.25;;;;;;;;;;5032532;28;20044;-89
2022/03/28 13:52:31;;;;;;;41.42;17.80;;;;;;;;;;5032477;28;20032;-91
2022/03/28 13:54:56;;;;;;;37.17;16.55;;;;;;;;;;5032457;28;20021;-90
2022/03/28 13:57:22;;;;;;;37.25;16.92;;;;;;;;;;5032450;28;20052;-90
2022/03/28 13:59:47;;;;;;;38.97;18.52;;;;;;;;;;5031843;28;20016;-90
2022/03/28 14:02:12;;;;;;;32.58;15.35;;;;;;;;;;5033732;28;20100;-85
2022/03/28 14:04:38;;;;;;;36.08;15.77;;;;;;;;;;5032219;28;20482;-89
2022/03/28 14:07:03;;;;;;;36.50;16.73;;;;;;;;;;5032928;28;20021;-88
2022/03/28 14:09:28;;;;;;;41.00;19.20;;;;;;;;;;5031595;28;20056;-90
2022/03/28 14:11:54;;;;;;;41.78;18.42;;;;;;;;;;5032003;28;20025;-84
2022/03/28 14:14:20;;;;;;;36.35;16.83;;;;;;;;;;5031702;28;20014;-90
2022/03/28 14:16:45;;;;;;;33.88;14.70;;;;;;;;;;5031729;28;20061;-89